Flight Track Log - Related Links

Times and Time Zones

All times are in EDT time to prevent confusion due to time zone crossing. See the N788BG flight status page for this flight to view local times or setup timezone preferences in your user account.

Time Position Orientation Groundspeed Altitude Reporting Facility
EDT Latitude Longitude Course Direction KTS MPH feet Rate Location/Type
Wed 03:16:12 PM 38.4844 -82.6067 345° North 102 117 5,000  Level Indianapolis Center
Wed 03:17:14 PM 38.5131 -82.6167 345° North 104 120 6,000 774 Climbing Indianapolis Center
Wed 03:18:16 PM 38.5428 -82.6297 341° North 109 125 6,600 629 Climbing Indianapolis Center
Wed 03:19:18 PM 38.5725 -82.6414 343° North 111 128 7,300 677 Climbing Indianapolis Center
Wed 03:20:20 PM 38.6028 -82.6528 344° North 113 130 8,000 726 Climbing Indianapolis Center
Wed 03:21:22 PM 38.6369 -82.6633 346° North 107 123 8,800 629 Climbing Indianapolis Center
Wed 03:22:24 PM 38.6650 -82.6742 343° North 111 128 9,300 435 Climbing Indianapolis Center
Wed 03:23:26 PM 38.6953 -82.6875 341° North 114 131 9,700 290 Climbing Indianapolis Center
Wed 03:24:28 PM 38.7269 -82.6983 345° North 118 136 9,900 144 Climbing Indianapolis Center
Wed 03:25:31 PM 38.7639 -82.7128 343° North 135 155 10,000 48 Climbing Indianapolis Center
Wed 03:26:33 PM 38.8122 -82.7258 348° North 148 170 10,000  Level Indianapolis Center
Wed 03:27:35 PM 38.8525 -82.7369 348° North 149 171 10,000 -32 Level Indianapolis Center
Wed 03:29:00 PM 38.9041 -82.7521 347° North  Level FlightAware Approximate
Wed 03:29:39 PM 38.9311 -82.7697 347° North 149 171 9,900  Level Indianapolis Center
Wed 03:30:41 PM 38.9714 -82.7789 350° North 148 170 9,900 48 Level Indianapolis Center
Wed 03:31:43 PM 39.0111 -82.7914 346° North 145 167 10,000  Climbing Indianapolis Center
Wed 03:32:45 PM 39.0511 -82.8092 341° North 151 174 9,900 -48 Descending Indianapolis Center
Wed 03:33:47 PM 39.0989 -82.8267 344° North 150 173 9,900 -48 Level Indianapolis Center
Wed 03:34:49 PM 39.1394 -82.8378 348° North 151 174 9,800 48 Descending Indianapolis Center
Wed 03:35:51 PM 39.1789 -82.8503 346° North 147 169 10,000 97 Climbing Indianapolis Center
Wed 03:36:53 PM 39.2183 -82.8622 347° North 147 169 10,000  Level Indianapolis Center
Wed 03:37:54 PM 39.2617 -82.8778 344° North 144 166 10,000  Level Indianapolis Center
Wed 03:38:57 PM 39.2967 -82.8864 349° North 143 165 10,000  Level Indianapolis Center
Wed 03:39:59 PM 39.3408 -82.9039 343° North 143 165 10,000  Level Indianapolis Center
Wed 03:41:09 PM 39.3844 -82.9214 343° North 141 162 10,000 48 Level Indianapolis Center
Wed 03:42:03 PM 39.4172 -82.9325 345° North 141 162 10,100 52 Climbing Indianapolis Center
Wed 03:43:05 PM 39.4597 -82.9514 341° North 141 162 10,100  Level Indianapolis Center
Wed 03:44:06 PM 39.4986 -82.9639 346° North 143 165 10,100 -98 Level Indianapolis Center
Wed 03:45:07 PM 39.5378 -82.9739 349° North 146 168 9,900  Descending Indianapolis Center
Wed 03:46:11 PM 39.5806 -82.9858 348° North 145 167 10,100 95 Climbing Indianapolis Center
Wed 03:47:13 PM 39.6194 -82.9997 345° North 143 165 10,100  Level Indianapolis Center
Wed 03:48:15 PM 39.6586 -83.0144 344° North 146 168 10,100 -51 Level Indianapolis Center
Wed 03:49:11 PM 39.6972 -83.0300 343° North 147 169 10,000 -51 Descending Indianapolis Center
Wed 03:50:12 PM 39.7361 -83.0425 346° North 147 169 10,000 50 Level Indianapolis Center
Wed 03:51:12 PM 39.7750 -83.0553 346° North 142 163 10,100 50 Climbing Indianapolis Center
Wed 03:52:13 PM 39.8136 -83.0733 340° North 145 167 10,100 -49 Level Indianapolis Center
Wed 03:53:14 PM 39.8547 -83.0833 349° North 144 166 10,000 -49 Descending Indianapolis Center
Wed 03:54:15 PM 39.8936 -83.0933 349° North 143 165 10,000  Level Indianapolis Center
Wed 03:55:22 PM 39.9344 -83.1117 341° North 147 169 10,000  Level Indianapolis Center
Wed 03:56:23 PM 39.9753 -83.1247 346° North 146 168 10,000  Level Indianapolis Center
Wed 03:57:18 PM 40.0097 -83.1397 342° North 146 168 10,000  Level Indianapolis Center
Wed 03:58:25 PM 40.0550 -83.1531 347° North 143 165 10,000  Level Indianapolis Center
Wed 03:59:20 PM 40.0894 -83.1681 342° North 141 162 10,000  Level Indianapolis Center
Wed 04:00:21 PM 40.1286 -83.1781 349° North 147 169 10,000  Level Indianapolis Center
Wed 04:01:22 PM 40.1700 -83.1858 352° North 145 167 10,000  Level Indianapolis Center
Wed 04:02:23 PM 40.2086 -83.2014 343° North 143 165 10,000  Level Indianapolis Center
Wed 04:03:24 PM 40.2489 -83.2225 338° Northwest 148 170 10,000  Level Indianapolis Center
Wed 04:04:25 PM 40.2878 -83.2353 346° North 144 166 10,000  Level Indianapolis Center
Wed 04:05:50 PM 40.3381 -83.2514 346° North 148 170 10,000  Level Indianapolis Center
Wed 04:06:52 PM 40.3844 -83.2675 345° North 148 170 10,000 -48 Level Indianapolis Center
Wed 04:07:55 PM 40.4244 -83.2822 344° North 148 170 9,900  Descending Indianapolis Center
Wed 04:08:57 PM 40.4628 -83.2958 345° North 142 163 10,000 48 Climbing Indianapolis Center
Wed 04:09:59 PM 40.5033 -83.3092 346° North 148 170 10,000 -194 Level Indianapolis Center
Wed 04:11:01 PM 40.5436 -83.3228 346° North 148 170 9,600 -387 Descending Indianapolis Center
Wed 04:12:03 PM 40.5864 -83.3458 338° Northwest 160 184 9,200 -387 Descending Indianapolis Center
Wed 04:13:05 PM 40.6283 -83.3639 342° North 160 184 8,800 -339 Descending Indianapolis Center
Wed 04:14:07 PM 40.6825 -83.3794 348° North 167 192 8,500 -387 Descending Indianapolis Center
Wed 04:15:09 PM 40.7264 -83.3969 343° North 165 190 8,000 -532 Descending Indianapolis Center
Wed 04:16:11 PM 40.7750 -83.4056 352° North 172 198 7,400 -532 Descending Indianapolis Center
Wed 04:17:13 PM 40.8228 -83.4147 352° North 174 200 6,900 -484 Descending Indianapolis Center
Wed 04:18:15 PM 40.8697 -83.4314 345° North 174 200 6,400 -484 Descending Indianapolis Center

Login

Don't have an account? Register now (free) for customized features, flight alerts, and more!